Time;durP1;ratioP1;P1;durP2;ratioP2;P2;SDS_P1;SDS_P2;PMS_P1;PMS_P2;Temp;Humidity;BMP_temperature;BMP_pressure;BME280_temperature;BME280_humidity;BME280_pressure;Samples;Min_cycle;Max_cycle;Signal;HPM_P1;HPM_P2
2021/05/13 00:00:39;;;;;;;9.63;5.20;;;;;;;10.16;77.08;101003.56;5117961;28;20688;-38
2021/05/13 00:03:05;;;;;;;8.25;4.78;;;;;;;10.21;76.84;101009.97;5117598;28;20383;-38
2021/05/13 00:05:30;;;;;;;8.00;5.17;;;;;;;10.25;76.61;101004.97;5117847;28;20497;-38
2021/05/13 00:07:56;;;;;;;4.70;3.97;;;;;;;10.23;76.22;101004.31;5117775;28;20024;-38
2021/05/13 00:10:23;;;;;;;8.93;5.38;;;;;;;10.15;76.24;101007.31;5118239;28;20024;-38
2021/05/13 00:12:59;;;;;;;9.77;4.93;;;;;;;10.02;76.29;101000.19;5117333;28;20031;-38
2021/05/13 00:15:27;;;;;;;6.57;4.77;;;;;;;9.97;76.08;100998.16;5117096;28;20411;-38
2021/05/13 00:17:53;;;;;;;11.23;5.40;;;;;;;10.02;75.81;101008.28;5117206;28;20774;-38
2021/05/13 00:20:27;;;;;;;8.48;4.75;;;;;;;9.88;77.49;100999.47;5117005;28;20122;-38
2021/05/13 00:22:54;;;;;;;7.75;4.72;;;;;;;9.96;76.80;101001.91;5117030;28;20038;-38
2021/05/13 00:25:19;;;;;;;;;;;;;;;10.11;75.28;100998.84;5117987;28;20027;-38
2021/05/13 00:27:45;;;;;;;11.68;4.90;;;;;;;10.04;76.82;100990.78;5117088;28;19919;-38
2021/05/13 00:30:11;;;;;;;;;;;;;;;10.17;74.71;101002.53;5117550;28;20110;-38
2021/05/13 00:32:37;;;;;;;9.63;5.53;;;;;;;10.01;77.48;100995.84;5117262;28;20000;-38
2021/05/13 00:35:12;;;;;;;9.77;5.35;;;;;;;9.97;76.91;101000.03;5117739;28;20032;-38
2021/05/13 00:37:37;;;;;;;7.70;4.65;;;;;;;10.05;76.93;100997.88;5116823;28;20084;-38
2021/05/13 00:40:05;;;;;;;7.38;5.40;;;;;;;10.03;77.39;100997.25;5116918;28;20023;-38
2021/05/13 00:42:30;;;;;;;8.20;4.90;;;;;;;10.00;77.49;100997.72;5116993;27;20044;-38
2021/05/13 00:44:56;;;;;;;8.87;5.27;;;;;;;9.99;77.84;100987.94;5117114;28;20543;-38
2021/05/13 00:47:23;;;;;;;;;;;;;;;10.14;76.68;100994.84;5117050;27;20031;-38
2021/05/13 00:49:49;;;;;;;9.10;6.15;;;;;;;9.94;78.36;100997.75;5117200;28;19907;-38
2021/05/13 00:52:18;;;;;;;11.47;6.17;;;;;;;9.98;78.13;100994.38;5116319;28;20027;-38
2021/05/13 00:54:43;;;;;;;9.77;5.55;;;;;;;9.98;78.56;100994.38;5116504;28;20794;-38
2021/05/13 00:57:11;;;;;;;9.30;5.57;;;;;;;10.01;78.02;100995.84;5116296;28;20031;-38
2021/05/13 00:59:39;;;;;;;9.65;5.47;;;;;;;9.97;78.68;100995.44;5116350;28;20030;-38
2021/05/13 01:02:04;;;;;;;7.13;5.30;;;;;;;9.92;77.84;101005.28;5116091;28;20535;-38
2021/05/13 01:04:30;;;;;;;10.83;5.30;;;;;;;9.99;78.88;101004.13;5116489;28;20054;-38
2021/05/13 01:06:56;;;;;;;6.87;5.53;;;;;;;9.94;78.91;100998.59;5116071;28;20030;-38
2021/05/13 01:09:23;;;;;;;9.60;5.05;;;;;;;9.95;78.36;100999.41;5116672;28;20023;-38
2021/05/13 01:11:53;;;;;;;10.70;5.53;;;;;;;9.85;78.11;100999.91;5115999;28;20066;-38
2021/05/13 01:19:33;;;;;;;10.52;6.07;;;;;;;9.74;78.27;101000.66;5116727;28;20036;-38
2021/05/13 01:21:59;;;;;;;11.10;5.22;;;;;;;9.75;77.70;100991.50;5116058;28;20027;-38
2021/05/13 01:24:24;;;;;;;7.47;5.00;;;;;;;9.71;78.32;100992.97;5115921;28;20471;-38
2021/05/13 01:26:51;;;;;;;7.10;4.70;;;;;;;9.72;77.96;100994.66;5116262;28;20035;-38
2021/05/13 01:29:17;;;;;;;;;;;;;;;9.85;77.01;100991.81;5116631;28;20318;-38
2021/05/13 01:31:43;;;;;;;7.82;4.95;;;;;;;9.60;78.20;100986.44;5116145;28;19919;-38
2021/05/13 01:34:08;;;;;;;9.23;5.53;;;;;;;9.68;77.45;100988.03;5116420;28;20027;-38
2021/05/13 01:36:35;;;;;;;6.33;5.67;;;;;;;9.62;78.38;100988.94;5115985;28;20052;-38
2021/05/13 01:39:01;;;;;;;;;;;;;;;9.75;76.76;100988.78;5116146;27;20028;-38
2021/05/13 01:41:26;;;;;;;6.18;5.30;;;;;;;9.59;78.92;100976.69;5115662;28;19907;-38
2021/05/13 01:43:51;;;;;;;7.10;5.07;;;;;;;9.52;78.52;100987.56;5115660;28;20409;-38
2021/05/13 01:46:17;;;;;;;8.47;5.80;;;;;;;9.51;78.55;100985.06;5115889;28;20028;-38
2021/05/13 01:48:44;;;;;;;9.33;5.97;;;;;;;9.47;78.87;100968.50;5115857;28;20094;-38
2021/05/13 01:51:09;;;;;;;8.10;5.50;;;;;;;9.47;78.73;100978.47;5115832;28;20039;-38
2021/05/13 01:53:35;;;;;;;9.70;4.77;;;;;;;9.47;78.71;100973.06;5115664;28;20027;-38
2021/05/13 01:56:00;;;;;;;6.63;4.70;;;;;;;9.43;77.68;100974.56;5115347;28;20027;-38
2021/05/13 01:58:25;;;;;;;8.03;5.83;;;;;;;9.47;78.64;100973.91;5115047;28;20035;-38
2021/05/13 02:00:51;;;;;;;8.27;5.87;;;;;;;9.43;78.82;100974.56;5115125;28;20391;-38
2021/05/13 02:03:17;;;;;;;6.97;5.50;;;;;;;9.38;78.73;100967.13;5115511;28;20379;-38
2021/05/13 02:05:43;;;;;;;8.55;5.13;;;;;;;9.39;79.00;100966.06;5115211;28;20052;-38
2021/05/13 02:08:08;;;;;;;9.07;6.10;;;;;;;9.41;78.70;100963.13;5114625;28;20149;-38
2021/05/13 02:10:33;;;;;;;7.13;5.90;;;;;;;9.39;78.85;100959.84;5115441;28;20028;-38
2021/05/13 02:12:59;;;;;;;9.47;5.70;;;;;;;9.36;78.52;100955.69;5115080;28;20035;-38
2021/05/13 02:15:25;;;;;;;6.50;4.63;;;;;;;9.38;78.60;100961.72;5115268;28;20035;-38
2021/05/13 02:17:50;;;;;;;11.35;6.55;;;;;;;9.34;78.92;100948.88;5114784;28;20053;-38
2021/05/13 02:20:19;;;;;;;9.13;6.13;;;;;;;9.39;79.74;100955.25;5115628;28;20034;-38
2021/05/13 02:22:45;;;;;;;8.82;6.20;;;;;;;9.40;79.28;100956.09;5114369;28;20026;-38
2021/05/13 02:25:11;;;;;;;10.60;6.38;;;;;;;9.40;79.67;100950.69;5114737;28;20028;-38
2021/05/13 02:27:38;;;;;;;9.07;5.88;;;;;;;9.35;79.19;100948.66;5115026;28;20471;-38
2021/05/13 02:30:05;;;;;;;6.63;5.47;;;;;;;9.36;80.22;100950.28;5115036;28;20089;-38
2021/05/13 02:32:30;;;;;;;9.90;5.97;;;;;;;9.28;79.91;100950.59;5114502;28;20027;-38
2021/05/13 02:34:55;;;;;;;8.27;6.10;;;;;;;9.26;79.80;100939.16;5114708;28;20031;-38
2021/05/13 02:37:21;;;;;;;9.40;6.60;;;;;;;9.31;79.97;100941.22;5114156;28;20152;-38
2021/05/13 02:39:49;;;;;;;10.63;6.70;;;;;;;9.30;80.42;100943.09;5114927;28;20031;-38
2021/05/13 02:42:16;;;;;;;12.18;7.10;;;;;;;9.27;80.79;100938.97;5114513;28;20031;-38
2021/05/13 02:44:41;;;;;;;10.23;7.22;;;;;;;9.25;81.09;100942.91;5114745;28;20034;-38
2021/05/13 02:47:07;;;;;;;9.02;6.72;;;;;;;9.28;80.83;100946.00;5114491;28;20028;-38
2021/05/13 02:49:32;;;;;;;7.95;6.45;;;;;;;9.29;81.01;100941.44;5114494;28;20061;-38
2021/05/13 02:51:58;;;;;;;10.43;7.87;;;;;;;9.19;80.91;100939.22;5114248;28;20062;-38
2021/05/13 02:54:23;;;;;;;11.07;8.27;;;;;;;9.13;81.91;100939.28;5114573;28;20270;-38
2021/05/13 02:56:49;;;;;;;8.70;7.07;;;;;;;9.16;81.33;100938.84;5113949;28;20028;-38
2021/05/13 02:59:16;;;;;;;8.80;6.17;;;;;;;9.23;80.97;100934.22;5114320;28;20110;-38
2021/05/13 03:01:41;;;;;;;8.98;7.32;;;;;;;9.20;81.10;100923.88;5114399;28;20028;-38
2021/05/13 03:04:07;;;;;;;9.95;7.05;;;;;;;9.14;81.24;100917.47;5114397;28;20047;-38
2021/05/13 03:06:32;;;;;;;10.03;6.83;;;;;;;9.18;80.72;100915.19;5114171;28;20066;-38
2021/05/13 03:08:59;;;;;;;8.20;6.83;;;;;;;9.12;80.05;100921.44;5114354;28;20023;-38
2021/05/13 03:11:26;;;;;;;10.20;6.80;;;;;;;9.05;80.14;100918.78;5114187;28;20042;-38
2021/05/13 03:13:54;;;;;;;8.32;6.43;;;;;;;9.01;80.12;100907.59;5113892;28;20091;-38
2021/05/13 03:16:20;;;;;;;9.13;6.30;;;;;;;8.92;80.80;100905.41;5113850;28;20035;-38
2021/05/13 03:18:50;;;;;;;9.88;7.15;;;;;;;8.97;80.63;100911.78;5113050;28;20422;-38
2021/05/13 03:21:40;;;;;;;8.70;6.95;;;;;;;8.97;79.89;100901.00;5114177;28;20032;-38
2021/05/13 03:26:57;;;;;;;9.10;8.20;;;;;;;8.95;81.17;100900.41;5114153;28;20035;-38
2021/05/13 03:29:22;;;;;;;11.38;8.13;;;;;;;8.94;81.94;100896.06;5114291;28;20031;-38
2021/05/13 03:31:48;;;;;;;10.47;8.27;;;;;;;8.95;81.59;100884.22;5113433;28;20043;-38
2021/05/13 03:34:14;;;;;;;9.85;8.85;;;;;;;9.00;81.83;100881.69;5114010;28;20019;-38
2021/05/13 03:36:39;;;;;;;;;;;;;;;9.11;79.43;100887.41;5114046;28;20032;-38
2021/05/13 03:39:08;;;;;;;9.60;8.60;;;;;;;8.97;81.37;100884.81;5114481;28;19919;-38
2021/05/13 03:41:34;;;;;;;10.00;7.93;;;;;;;8.96;81.55;100891.25;5113681;28;20270;-38
2021/05/13 03:43:59;;;;;;;11.20;8.38;;;;;;;8.87;80.86;100886.34;5113699;28;20122;-38
2021/05/13 03:46:25;;;;;;;9.27;7.07;;;;;;;8.88;80.67;100888.00;5113971;28;20063;-39
2021/05/13 03:48:51;;;;;;;8.95;8.05;;;;;;;8.80;80.35;100889.09;5113613;28;20031;-38
2021/05/13 03:51:16;;;;;;;9.23;8.30;;;;;;;8.81;81.22;100881.84;5113370;28;20027;-38
2021/05/13 03:53:42;;;;;;;11.00;8.60;;;;;;;8.78;80.90;100883.09;5113242;28;20071;-38
2021/05/13 03:56:07;;;;;;;12.18;8.95;;;;;;;8.77;81.26;100889.53;5113253;28;20028;-38
2021/05/13 03:58:38;;;;;;;12.73;9.50;;;;;;;8.74;81.61;100876.50;5113551;28;20080;-38
2021/05/13 04:03:35;;;;;;;12.43;9.50;;;;;;;8.80;81.75;100890.97;5113870;28;20035;-38
2021/05/13 04:06:01;;;;;;;10.27;7.30;;;;;;;8.81;81.10;100888.06;5113264;28;20048;-38
2021/05/13 04:08:26;;;;;;;8.90;8.00;;;;;;;8.68;81.14;100885.44;5112993;28;20032;-38
2021/05/13 04:10:52;;;;;;;10.50;7.90;;;;;;;8.74;80.42;100887.28;5113384;28;20052;-38
2021/05/13 04:13:18;;;;;;;9.63;8.50;;;;;;;8.71;81.89;100888.53;5113330;28;20078;-38
2021/05/13 04:15:46;;;;;;;11.80;8.67;;;;;;;8.73;81.72;100885.63;5113644;28;20110;-38
2021/05/13 04:18:12;;;;;;;9.50;8.60;;;;;;;8.67;81.18;100890.00;5112155;28;20030;-38
2021/05/13 04:20:37;;;;;;;11.02;8.75;;;;;;;8.64;81.21;100890.47;5113466;28;20417;-38
2021/05/13 04:23:02;;;;;;;10.53;8.47;;;;;;;8.63;81.26;100887.97;5113168;28;20035;-38
2021/05/13 04:25:28;;;;;;;8.53;7.47;;;;;;;8.54;81.22;100887.41;5113370;28;20024;-38
2021/05/13 04:27:53;;;;;;;10.80;9.67;;;;;;;8.46;82.64;100880.41;5113264;28;20024;-38
2021/05/13 04:30:19;;;;;;;11.67;10.20;;;;;;;8.40;83.54;100889.34;5115276;28;20027;-38
2021/05/13 04:32:44;;;;;;;12.63;10.13;;;;;;;8.30;83.55;100886.28;5117218;28;20031;-38
2021/05/13 04:35:11;;;;;;;11.90;10.27;;;;;;;8.24;84.23;100887.09;5117889;28;20032;-38
2021/05/13 04:37:37;;;;;;;13.25;9.70;;;;;;;8.42;84.66;100886.44;5117343;28;20020;-38
2021/05/13 04:40:03;;;;;;;11.50;9.90;;;;;;;8.55;83.91;100883.66;5117384;28;20070;-38
2021/05/13 04:42:29;;;;;;;12.55;9.45;;;;;;;8.65;84.00;100883.19;5116725;28;20034;-38
2021/05/13 04:44:56;;;;;;;13.30;10.73;;;;;;;8.70;84.28;100868.03;5116648;28;20028;-38
2021/05/13 04:49:52;;;;;;;10.88;9.65;;;;;;;9.00;82.96;100868.19;5117566;28;20048;-38
2021/05/13 04:52:19;;;;;;;12.88;9.40;;;;;;;9.10;83.50;100866.88;5117524;28;20028;-38
2021/05/13 04:54:48;;;;;;;11.55;9.73;;;;;;;9.22;83.88;100873.19;5117523;28;20020;-38
2021/05/13 04:57:14;;;;;;;10.85;9.73;;;;;;;9.35;83.52;100865.00;5117005;28;20115;-39
2021/05/13 04:59:39;;;;;;;12.00;10.43;;;;;;;9.50;82.99;100870.03;5117215;28;20356;-38
2021/05/13 05:02:04;;;;;;;11.10;9.87;;;;;;;9.60;82.63;100864.13;5116494;28;20035;-38
2021/05/13 05:04:30;;;;;;;11.70;10.03;;;;;;;9.71;82.75;100863.38;5117103;28;20039;-38
2021/05/13 05:06:55;;;;;;;11.83;10.17;;;;;;;9.71;82.79;100875.03;5116453;28;20038;-38
2021/05/13 05:09:21;;;;;;;11.30;9.87;;;;;;;9.82;82.42;100864.50;5116201;28;20103;-39
2021/05/13 05:11:46;;;;;;;11.82;10.65;;;;;;;9.95;82.49;100869.75;5116311;28;20067;-39
2021/05/13 05:14:11;;;;;;;12.57;10.37;;;;;;;10.03;82.52;100878.38;5116146;28;20031;-38
2021/05/13 05:16:36;;;;;;;12.20;10.87;;;;;;;9.98;82.46;100862.00;5115946;28;20372;-38
2021/05/13 05:19:02;;;;;;;12.30;10.83;;;;;;;9.99;81.90;100868.25;5116347;28;20041;-40
2021/05/13 05:21:27;;;;;;;13.07;10.90;;;;;;;9.99;82.85;100868.25;5116063;28;20577;-38
2021/05/13 05:23:53;;;;;;;13.67;11.17;;;;;;;10.13;82.57;100869.72;5115833;27;20092;-38
2021/05/13 05:26:18;;;;;;;11.60;10.60;;;;;;;10.23;82.25;100875.41;5116183;28;20493;-39
2021/05/13 05:28:44;;;;;;;12.90;11.57;;;;;;;10.34;81.99;100867.63;5116273;28;20030;-39
2021/05/13 05:31:09;;;;;;;14.63;12.60;;;;;;;10.34;82.33;100876.53;5116225;28;20490;-39
2021/05/13 05:33:35;;;;;;;13.73;12.40;;;;;;;10.46;82.17;100868.50;5115648;28;20024;-39
2021/05/13 05:36:00;;;;;;;13.87;12.57;;;;;;;10.52;81.84;100873.81;5115851;28;20026;-39
2021/05/13 05:38:25;;;;;;;13.87;12.47;;;;;;;10.65;81.83;100871.97;5115720;28;20036;-39
2021/05/13 05:40:51;;;;;;;15.27;13.68;;;;;;;10.82;81.88;100867.53;5115759;28;20023;-37
2021/05/13 05:43:16;;;;;;;13.90;12.60;;;;;;;10.85;80.66;100867.09;5114976;28;20364;-37
2021/05/13 05:45:42;;;;;;;18.93;15.27;;;;;;;10.91;80.99;100865.31;5116054;27;20020;-37
2021/05/13 05:48:08;;;;;;;17.02;15.25;;;;;;;10.94;80.50;100860.28;5115646;27;20051;-37
2021/05/13 05:50:39;;;;;;;19.75;16.42;;;;;;;11.02;80.55;100845.56;5115512;28;20032;-37
2021/05/13 05:53:05;;;;;;;17.20;15.40;;;;;;;11.18;81.26;100850.31;5115461;27;20032;-38
2021/05/13 05:55:32;;;;;;;17.35;15.55;;;;;;;11.28;79.78;100852.44;5116191;28;20068;-39
2021/05/13 05:57:58;;;;;;;18.65;16.73;;;;;;;11.27;79.92;100843.50;5115257;28;20032;-39
2021/05/13 06:00:23;;;;;;;18.17;16.42;;;;;;;11.31;79.86;100838.41;5115418;27;20023;-39
2021/05/13 06:02:49;;;;;;;18.88;17.17;;;;;;;11.41;80.08;100843.22;5115010;28;20069;-39
2021/05/13 06:05:14;;;;;;;19.00;17.10;;;;;;;11.47;80.22;100840.41;5115579;28;20019;-39
2021/05/13 06:07:40;;;;;;;21.35;18.75;;;;;;;11.60;79.59;100842.03;5115170;28;20131;-39
2021/05/13 06:10:08;;;;;;;19.25;17.42;;;;;;;11.68;78.65;100843.56;5115151;28;20107;-39
2021/05/13 06:12:35;;;;;;;21.05;17.95;;;;;;;11.85;78.79;100834.47;5113956;27;20031;-39
2021/05/13 06:15:00;;;;;;;20.10;18.02;;;;;;;11.93;77.79;100829.75;5115194;28;20352;-39
2021/05/13 06:17:27;;;;;;;19.23;17.30;;;;;;;12.10;78.07;100819.78;5115224;28;20072;-39
2021/05/13 06:19:53;;;;;;;19.20;16.95;;;;;;;12.22;78.06;100827.88;5115166;28;20028;-39
2021/05/13 06:22:18;;;;;;;24.38;19.02;;;;;;;12.27;77.17;100817.13;5115077;28;20030;-39
2021/05/13 06:24:45;;;;;;;21.47;18.10;;;;;;;12.34;76.22;100815.91;5115204;27;20200;-39
2021/05/13 06:27:10;;;;;;;21.77;18.33;;;;;;;12.32;75.69;100820.75;5114459;28;20039;-39
2021/05/13 06:29:36;;;;;;;21.50;18.98;;;;;;;12.44;74.87;100820.69;5115399;28;20037;-39
2021/05/13 06:32:01;;;;;;;21.40;19.30;;;;;;;12.46;75.38;100817.75;5114624;28;20027;-40
2021/05/13 06:34:28;;;;;;;22.13;19.77;;;;;;;12.56;75.62;100818.75;5114983;28;20265;-39
2021/05/13 06:36:54;;;;;;;21.73;19.48;;;;;;;12.43;74.97;100810.91;5115224;28;20363;-39
2021/05/13 06:39:20;;;;;;;21.75;19.63;;;;;;;12.52;75.34;100816.78;5114758;28;20104;-39
2021/05/13 06:41:46;;;;;;;;;;;;;;;12.68;75.71;100815.13;5115196;28;20464;-39
2021/05/13 06:44:11;;;;;;;21.92;19.75;;;;;;;12.68;74.32;100810.53;5114767;28;19999;-37
2021/05/13 06:46:36;;;;;;;22.20;19.13;;;;;;;12.71;73.72;100807.34;5114434;28;20352;-38
2021/05/13 06:49:02;;;;;;;20.98;18.77;;;;;;;12.84;74.55;100809.75;5114411;28;20249;-38
2021/05/13 06:51:28;;;;;;;20.70;18.60;;;;;;;12.95;74.55;100812.63;5114079;28;20027;-38
2021/05/13 06:53:54;;;;;;;20.13;18.02;;;;;;;13.09;73.92;100811.22;5113438;28;20031;-39
2021/05/13 06:56:21;;;;;;;19.83;17.83;;;;;;;13.17;72.57;100808.06;5114291;28;20110;-39
2021/05/13 06:58:46;;;;;;;21.27;19.08;;;;;;;13.32;74.11;100802.06;5114452;28;20034;-39
2021/05/13 07:01:12;;;;;;;20.48;18.27;;;;;;;13.39;73.21;100808.13;5113901;28;20475;-38
2021/05/13 07:03:37;;;;;;;19.00;16.83;;;;;;;13.50;72.88;100806.38;5114658;28;20023;-38
2021/05/13 07:06:03;;;;;;;20.60;18.50;;;;;;;13.58;73.65;100809.50;5114775;28;20332;-38
2021/05/13 07:08:28;;;;;;;19.77;17.83;;;;;;;13.59;72.54;100805.69;5114110;28;20047;-38
2021/05/13 07:10:54;;;;;;;20.40;18.10;;;;;;;13.62;72.11;100801.66;5114068;28;20364;-38
2021/05/13 07:13:20;;;;;;;20.13;18.03;;;;;;;13.74;72.89;100807.78;5113542;28;20054;-38
2021/05/13 07:15:45;;;;;;;20.20;18.25;;;;;;;13.77;73.17;100811.91;5113904;28;20288;-38
2021/05/13 07:18:15;;;;;;;22.90;17.80;;;;;;;13.84;71.95;100812.53;5113866;28;20023;-38
2021/05/13 07:20:42;;;;;;;19.55;17.38;;;;;;;13.91;71.61;100810.44;5114551;28;20299;-38
2021/05/13 07:23:07;;;;;;;19.77;17.63;;;;;;;13.90;70.31;100808.78;5114021;28;20494;-38
2021/05/13 07:25:33;;;;;;;21.45;19.25;;;;;;;13.94;72.02;100809.94;5114159;28;20071;-38
2021/05/13 07:27:59;;;;;;;22.40;20.08;;;;;;;14.04;71.54;100807.31;5113654;28;20026;-38
2021/05/13 07:30:25;;;;;;;;;;;;;;;14.12;70.74;100809.59;5114320;28;20028;-39
2021/05/13 07:32:51;;;;;;;20.30;18.20;;;;;;;14.10;69.46;100810.91;5113339;27;20283;-39
2021/05/13 07:35:17;;;;;;;20.10;17.80;;;;;;;14.23;70.38;100812.41;5113412;28;20030;-38
2021/05/13 07:37:43;;;;;;;20.77;18.02;;;;;;;14.37;69.33;100810.94;5114325;28;20023;-38
2021/05/13 07:40:09;;;;;;;20.67;18.02;;;;;;;14.46;68.92;100814.03;5113640;28;20024;-38
2021/05/13 07:42:34;;;;;;;20.17;18.08;;;;;;;14.34;67.39;100812.25;5113883;28;20020;-39
2021/05/13 07:45:00;;;;;;;17.83;16.03;;;;;;;14.40;67.50;100805.81;5113808;28;20455;-39
2021/05/13 07:47:25;;;;;;;18.03;16.17;;;;;;;14.42;65.64;100806.38;5113586;28;20042;-39
2021/05/13 07:49:50;;;;;;;17.37;15.57;;;;;;;14.46;66.11;100811.31;5113566;28;20030;-39
2021/05/13 07:52:17;;;;;;;17.35;15.13;;;;;;;14.59;66.09;100806.31;5113485;28;20047;-39
2021/05/13 07:54:42;;;;;;;;;;;;;;;14.72;67.39;100807.75;5114090;28;20464;-39
2021/05/13 07:57:08;;;;;;;16.77;15.05;;;;;;;14.78;65.20;100803.16;5113308;28;19912;-38
2021/05/13 07:59:34;;;;;;;17.75;15.35;;;;;;;14.87;65.10;100807.88;5113361;28;20032;-39
2021/05/13 08:01:59;;;;;;;19.00;17.10;;;;;;;14.91;66.12;100802.72;5113319;28;20066;-39
2021/05/13 08:04:25;;;;;;;19.02;15.95;;;;;;;15.04;66.05;100799.56;5113978;28;20063;-39
2021/05/13 08:06:50;;;;;;;19.90;17.90;;;;;;;14.97;66.96;100792.69;5117561;28;20039;-38
2021/05/13 08:09:15;;;;;;;17.33;15.57;;;;;;;15.09;64.75;100796.06;5118353;28;20023;-39
2021/05/13 08:11:41;;;;;;;19.43;15.93;;;;;;;15.32;66.21;100800.28;5117337;28;20460;-38
2021/05/13 08:14:06;;;;;;;16.17;14.67;;;;;;;15.42;64.93;100792.16;5117858;28;20322;-39
2021/05/13 08:16:32;;;;;;;17.17;15.35;;;;;;;15.46;63.56;100794.09;5117707;28;20118;-39
2021/05/13 08:18:57;;;;;;;16.77;14.88;;;;;;;15.63;64.11;100799.41;5117990;28;20035;-38
2021/05/13 08:21:23;;;;;;;18.10;15.80;;;;;;;15.72;63.08;100786.09;5116946;28;20035;-39
2021/05/13 08:23:48;;;;;;;16.60;14.85;;;;;;;15.83;63.06;100789.66;5117919;28;20034;-38
2021/05/13 08:26:14;;;;;;;18.00;16.20;;;;;;;15.89;62.34;100786.69;5117825;28;20044;-38
2021/05/13 08:28:39;;;;;;;16.80;15.13;;;;;;;15.92;63.88;100782.63;5117040;28;20459;-38
2021/05/13 08:31:04;;;;;;;17.50;15.53;;;;;;;15.89;63.68;100775.78;5116968;28;20127;-38
2021/05/13 08:33:29;;;;;;;19.83;14.53;;;;;;;15.98;61.86;100778.00;5117726;28;20265;-38
2021/05/13 08:35:55;;;;;;;17.83;13.90;;;;;;;15.97;60.66;100777.19;5116801;28;20103;-38
2021/05/13 08:38:20;;;;;;;16.20;13.20;;;;;;;16.00;60.99;100776.63;5117321;28;20105;-38
2021/05/13 08:40:45;;;;;;;14.13;12.57;;;;;;;16.07;59.09;100785.38;5117629;28;20027;-38
2021/05/13 08:43:25;;;;;;;12.13;10.85;;;;;;;16.14;58.60;100780.47;5116512;27;20266;-38
2021/05/13 08:45:52;;;;;;;15.35;13.75;;;;;;;16.13;59.13;100778.84;5115731;28;20481;-38
2021/05/13 08:48:18;;;;;;;17.35;14.93;;;;;;;16.09;59.89;100771.47;5116337;28;20020;-38
2021/05/13 08:50:44;;;;;;;15.20;13.35;;;;;;;16.28;58.40;100769.03;5117264;28;20031;-38
2021/05/13 08:53:09;;;;;;;15.75;12.45;;;;;;;16.51;58.06;100765.00;5116819;28;20492;-38
2021/05/13 08:55:35;;;;;;;14.63;10.90;;;;;;;16.65;56.24;100763.34;5116874;28;20439;-38
2021/05/13 08:58:00;;;;;;;14.95;11.50;;;;;;;16.76;57.88;100769.66;5115096;28;20024;-38
2021/05/13 09:00:26;;;;;;;12.50;10.52;;;;;;;16.88;55.69;100760.06;5117304;28;20035;-38
2021/05/13 09:02:51;;;;;;;10.70;8.23;;;;;;;17.00;53.76;100759.78;5116674;28;20027;-38
2021/05/13 09:05:17;;;;;;;11.95;8.05;;;;;;;17.02;52.34;100759.50;5116620;28;20035;-37
2021/05/13 09:07:42;;;;;;;;;;;;;;;16.93;52.41;100759.25;5116477;28;20028;-38
2021/05/13 09:10:10;;;;;;;9.60;7.90;;;;;;;17.09;54.99;100757.34;5115870;28;19908;-38
2021/05/13 09:12:37;;;;;;;9.45;7.18;;;;;;;17.30;51.67;100753.44;5115952;28;20296;-38
2021/05/13 09:15:08;;;;;;;8.95;6.25;;;;;;;17.41;50.50;100757.78;5115174;28;20114;-38
2021/05/13 09:17:34;;;;;;;11.77;8.00;;;;;;;17.40;50.11;100752.59;5115013;28;20024;-38
2021/05/13 09:20:00;;;;;;;12.50;8.43;;;;;;;17.36;50.06;100756.97;5116401;28;20024;-38
2021/05/13 09:22:28;;;;;;;9.95;7.78;;;;;;;17.40;50.51;100747.13;5115998;28;20378;-38
2021/05/13 09:25:04;;;;;;;10.75;7.40;;;;;;;17.53;48.99;100754.72;5116098;28;20051;-38
2021/05/13 09:27:48;;;;;;;9.60;6.60;;;;;;;17.88;52.44;100759.25;5116388;28;20027;-38
2021/05/13 09:30:24;;;;;;;7.88;4.53;;;;;;;18.00;47.50;100746.03;5115791;28;20023;-38
2021/05/13 09:33:05;;;;;;;7.50;4.20;;;;;;;18.21;47.70;100735.78;5116007;28;20046;-38
2021/05/13 09:35:35;;;;;;;7.72;4.68;;;;;;;18.33;46.89;100732.69;5115721;28;20024;-38
2021/05/13 09:38:02;;;;;;;8.65;4.40;;;;;;;18.23;47.67;100724.56;5114698;28;20110;-38
2021/05/13 09:40:40;;;;;;;6.07;4.30;;;;;;;18.23;47.01;100730.84;5115786;28;20026;-38
2021/05/13 09:43:09;;;;;;;7.28;4.90;;;;;;;18.01;44.71;100725.00;5115981;28;20028;-38
2021/05/13 09:45:49;;;;;;;8.77;4.88;;;;;;;18.14;46.52;100724.34;5115954;28;20095;-38
2021/05/13 09:48:40;;;;;;;7.78;3.72;;;;;;;18.43;46.46;100729.88;5115584;28;20081;-38
2021/05/13 09:51:29;;;;;;;7.28;3.88;;;;;;;18.59;43.97;100724.25;5115836;28;20502;-38
2021/05/13 09:54:17;;;;;;;8.02;4.22;;;;;;;18.62;44.62;100724.50;5115531;28;20035;-38
2021/05/13 09:56:49;;;;;;;6.28;3.72;;;;;;;18.59;43.88;100716.03;5115049;28;20019;-38
2021/05/13 09:59:19;;;;;;;5.97;3.83;;;;;;;18.70;43.37;100721.19;5115738;28;20031;-38
2021/05/13 10:01:44;;;;;;;7.45;4.93;;;;;;;18.84;43.64;100723.22;5115429;28;20027;-38
2021/05/13 10:04:09;;;;;;;;;;;;;;;18.97;45.24;100725.28;5115847;28;20023;-38
2021/05/13 10:06:36;;;;;;;9.70;4.30;;;;;;;18.53;42.19;100718.00;5114916;28;19934;-38
2021/05/13 10:09:02;;;;;;;8.50;4.53;;;;;;;18.51;41.38;100714.75;5115199;28;20023;-39
2021/05/13 10:11:27;;;;;;;7.07;4.40;;;;;;;18.36;41.03;100710.22;5115106;28;20031;-39
2021/05/13 10:13:56;;;;;;;;;;;;;;;18.24;42.78;100712.50;5115494;27;20364;-39
2021/05/13 10:16:26;;;;;;;6.47;3.00;;;;;;;18.52;43.29;100714.47;5115526;28;19912;-38
2021/05/13 10:18:57;;;;;;;6.55;2.80;;;;;;;18.74;42.07;100716.78;5114970;28;20031;-39
2021/05/13 10:21:26;;;;;;;6.90;2.88;;;;;;;18.98;40.04;100702.25;5114990;28;20073;-38
2021/05/13 10:23:54;;;;;;;6.95;2.83;;;;;;;19.14;40.20;100708.41;5115379;28;20101;-38
2021/05/13 10:26:41;;;;;;;4.68;2.78;;;;;;;19.36;39.73;100694.16;5114567;28;20506;-38
2021/05/13 10:32:13;;;;;;;7.70;4.43;;;;;;;19.18;38.63;100698.47;5114845;28;20032;-38
2021/05/13 10:34:41;;;;;;;7.68;4.63;;;;;;;19.14;41.64;100697.47;5114781;27;20024;-38
2021/05/13 10:37:25;;;;;;;11.38;4.88;;;;;;;18.84;41.25;100701.31;5114591;28;20023;-38
2021/05/13 10:42:38;;;;;;;7.27;3.97;;;;;;;18.98;40.70;100689.41;5114881;28;20044;-38
2021/05/13 10:45:25;;;;;;;7.13;4.15;;;;;;;19.26;41.58;100695.91;5114749;28;20367;-38
2021/05/13 10:48:11;;;;;;;8.68;5.07;;;;;;;19.25;40.22;100688.81;5114144;28;20066;-39
2021/05/13 10:51:03;;;;;;;7.50;4.32;;;;;;;19.42;41.00;100684.75;5114958;28;20065;-38
2021/05/13 10:53:43;;;;;;;7.63;3.60;;;;;;;19.79;40.41;100684.84;5115192;27;20020;-38
2021/05/13 10:56:14;;;;;;;5.55;3.47;;;;;;;20.18;39.83;100680.94;5113956;28;20028;-38
2021/05/13 10:59:08;;;;;;;5.95;3.80;;;;;;;20.51;43.19;100681.00;5114164;28;20038;-38
2021/05/13 11:01:53;;;;;;;5.95;3.53;;;;;;;20.65;42.52;100681.03;5113190;28;20095;-38
2021/05/13 11:04:21;;;;;;;7.82;4.15;;;;;;;20.43;39.74;100673.41;5114374;28;20054;-38
2021/05/13 11:07:01;;;;;;;6.60;3.70;;;;;;;20.45;40.36;100676.69;5114480;28;20034;-39
2021/05/13 11:09:44;;;;;;;6.57;3.65;;;;;;;20.45;40.60;100666.50;5114348;28;20040;-38
2021/05/13 11:12:10;;;;;;;7.07;4.20;;;;;;;20.11;39.12;100672.28;5114852;28;20055;-38
2021/05/13 11:14:53;;;;;;;;;;;;;;;20.30;40.36;100675.81;5115312;28;20063;-38
2021/05/13 11:17:56;;;;;;;8.32;4.22;;;;;;;19.57;38.48;100659.91;5114110;28;20019;-38
2021/05/13 11:20:30;;;;;;;6.60;3.85;;;;;;;19.81;40.15;100657.09;5113961;28;20032;-39
2021/05/13 11:23:02;;;;;;;5.80;3.60;;;;;;;19.98;40.17;100651.09;5114007;28;20020;-39
2021/05/13 11:25:47;;;;;;;5.68;3.40;;;;;;;20.08;39.45;100658.34;5113855;28;20383;-38
2021/05/13 11:28:17;;;;;;;6.15;3.70;;;;;;;20.13;40.73;100658.25;5113818;28;20031;-38
2021/05/13 11:30:42;;;;;;;5.20;3.53;;;;;;;19.98;38.90;100653.84;5113862;28;20063;-38
2021/05/13 11:33:10;;;;;;;;;;;;;;;19.76;36.86;100658.00;5114482;28;20027;-38
2021/05/13 11:35:37;;;;;;;5.82;3.22;;;;;;;19.83;39.67;100654.06;5113819;28;19912;-38
2021/05/13 11:38:23;;;;;;;5.97;3.47;;;;;;;19.81;38.79;100662.56;5113575;28;20023;-39
2021/05/13 11:40:53;;;;;;;6.20;3.20;;;;;;;19.56;40.11;100659.06;5114122;28;20024;-39
2021/05/13 11:43:20;;;;;;;7.63;3.60;;;;;;;19.40;40.53;100665.06;5114376;28;20073;-39
2021/05/13 11:45:47;;;;;;;5.95;3.08;;;;;;;19.50;39.16;100662.16;5114011;28;20028;-39